sensor_id;sensor_type;location;lat;lon;timestamp;P1;durP1;ratioP1;P2;durP2;ratioP2
69900;SDS011;57183;50.930;5.406;2023-04-15T00:00:08;15.20;;;9.82;;
69900;SDS011;57183;50.930;5.406;2023-04-15T00:02:35;13.02;;;8.20;;
69900;SDS011;57183;50.930;5.406;2023-04-15T00:05:01;9.18;;;5.57;;
69900;SDS011;57183;50.930;5.406;2023-04-15T00:07:27;7.93;;;5.97;;
69900;SDS011;57183;50.930;5.406;2023-04-15T00:09:53;30.60;;;14.93;;
69900;SDS011;57183;50.930;5.406;2023-04-15T00:12:21;22.98;;;12.23;;
69900;SDS011;57183;50.930;5.406;2023-04-15T00:14:48;16.38;;;9.02;;
69900;SDS011;57183;50.930;5.406;2023-04-15T00:17:14;10.07;;;6.35;;
69900;SDS011;57183;50.930;5.406;2023-04-15T00:19:39;18.05;;;9.50;;
69900;SDS011;57183;50.930;5.406;2023-04-15T00:22:05;16.40;;;9.88;;
69900;SDS011;57183;50.930;5.406;2023-04-15T00:24:32;14.65;;;9.38;;
69900;SDS011;57183;50.930;5.406;2023-04-15T00:26:58;11.68;;;6.78;;
69900;SDS011;57183;50.930;5.406;2023-04-15T00:29:24;18.70;;;8.00;;
69900;SDS011;57183;50.930;5.406;2023-04-15T00:31:50;18.58;;;9.52;;
69900;SDS011;57183;50.930;5.406;2023-04-15T00:34:16;18.77;;;10.52;;
69900;SDS011;57183;50.930;5.406;2023-04-15T00:36:42;20.88;;;11.57;;
69900;SDS011;57183;50.930;5.406;2023-04-15T00:39:08;18.17;;;9.57;;
69900;SDS011;57183;50.930;5.406;2023-04-15T00:41:33;23.83;;;12.55;;
69900;SDS011;57183;50.930;5.406;2023-04-15T00:44:00;30.52;;;14.10;;
69900;SDS011;57183;50.930;5.406;2023-04-15T00:46:27;17.10;;;9.23;;
69900;SDS011;57183;50.930;5.406;2023-04-15T00:48:55;13.10;;;7.70;;
69900;SDS011;57183;50.930;5.406;2023-04-15T00:51:21;7.70;;;5.47;;
69900;SDS011;57183;50.930;5.406;2023-04-15T00:53:47;9.25;;;6.10;;
69900;SDS011;57183;50.930;5.406;2023-04-15T00:56:13;9.57;;;7.03;;
69900;SDS011;57183;50.930;5.406;2023-04-15T00:58:38;9.93;;;6.50;;
69900;SDS011;57183;50.930;5.406;2023-04-15T01:01:04;10.63;;;6.80;;
69900;SDS011;57183;50.930;5.406;2023-04-15T01:03:30;9.98;;;6.82;;
69900;SDS011;57183;50.930;5.406;2023-04-15T01:05:56;8.77;;;5.90;;
69900;SDS011;57183;50.930;5.406;2023-04-15T01:08:28;10.63;;;5.68;;
69900;SDS011;57183;50.930;5.406;2023-04-15T01:10:58;15.77;;;6.88;;
69900;SDS011;57183;50.930;5.406;2023-04-15T01:13:26;12.93;;;6.10;;
69900;SDS011;57183;50.930;5.406;2023-04-15T01:15:52;13.07;;;5.50;;
69900;SDS011;57183;50.930;5.406;2023-04-15T01:18:18;6.10;;;5.22;;
69900;SDS011;57183;50.930;5.406;2023-04-15T01:20:44;8.73;;;5.57;;
69900;SDS011;57183;50.930;5.406;2023-04-15T01:23:10;9.90;;;7.05;;
69900;SDS011;57183;50.930;5.406;2023-04-15T01:25:37;14.80;;;5.40;;
69900;SDS011;57183;50.930;5.406;2023-04-15T01:28:03;8.07;;;5.25;;
69900;SDS011;57183;50.930;5.406;2023-04-15T01:30:32;8.70;;;5.50;;
69900;SDS011;57183;50.930;5.406;2023-04-15T01:32:58;9.13;;;5.40;;
69900;SDS011;57183;50.930;5.406;2023-04-15T01:35:25;8.70;;;4.82;;
69900;SDS011;57183;50.930;5.406;2023-04-15T01:37:51;9.73;;;5.20;;
69900;SDS011;57183;50.930;5.406;2023-04-15T01:40:18;10.02;;;5.70;;
69900;SDS011;57183;50.930;5.406;2023-04-15T01:42:44;8.20;;;5.30;;
69900;SDS011;57183;50.930;5.406;2023-04-15T01:45:10;8.55;;;5.28;;
69900;SDS011;57183;50.930;5.406;2023-04-15T01:47:38;8.85;;;5.28;;
69900;SDS011;57183;50.930;5.406;2023-04-15T01:50:03;5.30;;;4.80;;
69900;SDS011;57183;50.930;5.406;2023-04-15T01:52:30;9.95;;;5.20;;
69900;SDS011;57183;50.930;5.406;2023-04-15T01:54:56;5.57;;;4.80;;
69900;SDS011;57183;50.930;5.406;2023-04-15T01:57:22;12.90;;;5.30;;
69900;SDS011;57183;50.930;5.406;2023-04-15T01:59:47;10.07;;;4.65;;
69900;SDS011;57183;50.930;5.406;2023-04-15T02:02:13;8.75;;;5.50;;
69900;SDS011;57183;50.930;5.406;2023-04-15T02:04:39;8.93;;;5.00;;
69900;SDS011;57183;50.930;5.406;2023-04-15T02:07:05;9.68;;;4.32;;
69900;SDS011;57183;50.930;5.406;2023-04-15T02:09:31;5.97;;;4.45;;
69900;SDS011;57183;50.930;5.406;2023-04-15T02:11:57;6.88;;;4.28;;
69900;SDS011;57183;50.930;5.406;2023-04-15T02:14:22;5.45;;;4.63;;
69900;SDS011;57183;50.930;5.406;2023-04-15T02:16:48;10.57;;;5.28;;
69900;SDS011;57183;50.930;5.406;2023-04-15T02:19:14;6.72;;;5.03;;
69900;SDS011;57183;50.930;5.406;2023-04-15T02:21:39;8.85;;;4.85;;
69900;SDS011;57183;50.930;5.406;2023-04-15T02:24:05;8.15;;;5.00;;
69900;SDS011;57183;50.930;5.406;2023-04-15T02:26:31;5.78;;;4.43;;
69900;SDS011;57183;50.930;5.406;2023-04-15T02:28:57;7.22;;;4.78;;
69900;SDS011;57183;50.930;5.406;2023-04-15T02:31:24;7.85;;;4.25;;
69900;SDS011;57183;50.930;5.406;2023-04-15T02:33:50;7.32;;;4.93;;
69900;SDS011;57183;50.930;5.406;2023-04-15T02:36:16;7.28;;;4.95;;
69900;SDS011;57183;50.930;5.406;2023-04-15T02:38:41;7.05;;;4.72;;
69900;SDS011;57183;50.930;5.406;2023-04-15T02:41:08;7.75;;;4.57;;
69900;SDS011;57183;50.930;5.406;2023-04-15T02:43:34;7.18;;;4.95;;
69900;SDS011;57183;50.930;5.406;2023-04-15T02:46:00;8.70;;;5.00;;
69900;SDS011;57183;50.930;5.406;2023-04-15T02:48:25;8.75;;;4.57;;
69900;SDS011;57183;50.930;5.406;2023-04-15T02:50:51;7.18;;;4.65;;
69900;SDS011;57183;50.930;5.406;2023-04-15T02:53:17;6.32;;;4.63;;
69900;SDS011;57183;50.930;5.406;2023-04-15T02:55:43;8.13;;;4.53;;
69900;SDS011;57183;50.930;5.406;2023-04-15T02:58:10;6.40;;;4.90;;
69900;SDS011;57183;50.930;5.406;2023-04-15T03:00:36;8.18;;;5.15;;
69900;SDS011;57183;50.930;5.406;2023-04-15T03:03:02;6.82;;;5.30;;
69900;SDS011;57183;50.930;5.406;2023-04-15T03:05:29;6.63;;;5.50;;
69900;SDS011;57183;50.930;5.406;2023-04-15T03:07:55;8.30;;;4.38;;
69900;SDS011;57183;50.930;5.406;2023-04-15T03:10:21;6.40;;;5.25;;
69900;SDS011;57183;50.930;5.406;2023-04-15T03:12:47;6.15;;;4.57;;
69900;SDS011;57183;50.930;5.406;2023-04-15T03:15:13;7.53;;;5.25;;
69900;SDS011;57183;50.930;5.406;2023-04-15T03:17:39;10.32;;;5.18;;
69900;SDS011;57183;50.930;5.406;2023-04-15T03:20:05;5.68;;;4.95;;
69900;SDS011;57183;50.930;5.406;2023-04-15T03:22:31;7.75;;;4.80;;
69900;SDS011;57183;50.930;5.406;2023-04-15T03:24:57;5.32;;;4.55;;
69900;SDS011;57183;50.930;5.406;2023-04-15T03:27:23;7.47;;;5.18;;
69900;SDS011;57183;50.930;5.406;2023-04-15T03:29:49;8.73;;;5.28;;
69900;SDS011;57183;50.930;5.406;2023-04-15T03:32:15;10.27;;;4.35;;
69900;SDS011;57183;50.930;5.406;2023-04-15T03:34:41;5.40;;;4.30;;
69900;SDS011;57183;50.930;5.406;2023-04-15T03:37:07;7.60;;;4.65;;
69900;SDS011;57183;50.930;5.406;2023-04-15T03:39:33;9.45;;;5.35;;
69900;SDS011;57183;50.930;5.406;2023-04-15T03:41:59;6.75;;;4.72;;
69900;SDS011;57183;50.930;5.406;2023-04-15T03:44:26;6.50;;;5.68;;
69900;SDS011;57183;50.930;5.406;2023-04-15T03:46:51;6.18;;;4.53;;
69900;SDS011;57183;50.930;5.406;2023-04-15T03:49:18;7.07;;;5.25;;
69900;SDS011;57183;50.930;5.406;2023-04-15T03:51:44;5.55;;;4.18;;
69900;SDS011;57183;50.930;5.406;2023-04-15T03:54:10;6.45;;;4.45;;
69900;SDS011;57183;50.930;5.406;2023-04-15T03:56:36;10.82;;;4.78;;
69900;SDS011;57183;50.930;5.406;2023-04-15T03:59:02;9.23;;;4.45;;
69900;SDS011;57183;50.930;5.406;2023-04-15T04:01:28;8.52;;;4.38;;
69900;SDS011;57183;50.930;5.406;2023-04-15T04:03:53;8.05;;;4.43;;
69900;SDS011;57183;50.930;5.406;2023-04-15T04:06:19;8.02;;;4.47;;
69900;SDS011;57183;50.930;5.406;2023-04-15T04:08:45;11.07;;;4.40;;
69900;SDS011;57183;50.930;5.406;2023-04-15T04:11:11;5.53;;;4.25;;
69900;SDS011;57183;50.930;5.406;2023-04-15T04:13:37;6.93;;;4.10;;
69900;SDS011;57183;50.930;5.406;2023-04-15T04:16:03;10.88;;;4.38;;
69900;SDS011;57183;50.930;5.406;2023-04-15T04:18:29;6.13;;;3.92;;
69900;SDS011;57183;50.930;5.406;2023-04-15T04:20:56;6.35;;;3.90;;
69900;SDS011;57183;50.930;5.406;2023-04-15T04:23:21;6.93;;;4.22;;
69900;SDS011;57183;50.930;5.406;2023-04-15T04:25:47;4.57;;;3.97;;
69900;SDS011;57183;50.930;5.406;2023-04-15T04:28:13;5.43;;;4.05;;
69900;SDS011;57183;50.930;5.406;2023-04-15T04:30:38;3.88;;;3.13;;
69900;SDS011;57183;50.930;5.406;2023-04-15T04:33:05;5.93;;;3.90;;
69900;SDS011;57183;50.930;5.406;2023-04-15T04:35:31;4.78;;;3.75;;
69900;SDS011;57183;50.930;5.406;2023-04-15T04:37:59;4.13;;;3.08;;
69900;SDS011;57183;50.930;5.406;2023-04-15T04:40:25;5.40;;;3.38;;
69900;SDS011;57183;50.930;5.406;2023-04-15T04:42:51;8.25;;;3.90;;
69900;SDS011;57183;50.930;5.406;2023-04-15T04:45:17;5.65;;;3.10;;
69900;SDS011;57183;50.930;5.406;2023-04-15T04:47:43;6.95;;;3.30;;
69900;SDS011;57183;50.930;5.406;2023-04-15T04:50:10;5.10;;;3.35;;
69900;SDS011;57183;50.930;5.406;2023-04-15T04:52:36;5.88;;;3.65;;
69900;SDS011;57183;50.930;5.406;2023-04-15T04:55:02;5.55;;;3.03;;
69900;SDS011;57183;50.930;5.406;2023-04-15T04:57:28;9.57;;;3.42;;
69900;SDS011;57183;50.930;5.406;2023-04-15T04:59:54;4.28;;;3.47;;
69900;SDS011;57183;50.930;5.406;2023-04-15T05:02:20;6.63;;;3.25;;
69900;SDS011;57183;50.930;5.406;2023-04-15T05:04:45;6.60;;;3.22;;
69900;SDS011;57183;50.930;5.406;2023-04-15T05:07:11;9.98;;;3.08;;
69900;SDS011;57183;50.930;5.406;2023-04-15T05:09:37;7.93;;;3.47;;
69900;SDS011;57183;50.930;5.406;2023-04-15T05:12:03;5.70;;;3.17;;
69900;SDS011;57183;50.930;5.406;2023-04-15T05:14:29;6.20;;;3.60;;
69900;SDS011;57183;50.930;5.406;2023-04-15T05:16:56;8.80;;;3.67;;
69900;SDS011;57183;50.930;5.406;2023-04-15T05:19:21;9.25;;;4.43;;
69900;SDS011;57183;50.930;5.406;2023-04-15T05:21:47;7.00;;;4.20;;
69900;SDS011;57183;50.930;5.406;2023-04-15T05:24:13;10.07;;;3.63;;
69900;SDS011;57183;50.930;5.406;2023-04-15T05:26:38;5.90;;;3.40;;
69900;SDS011;57183;50.930;5.406;2023-04-15T05:29:04;12.40;;;3.92;;
69900;SDS011;57183;50.930;5.406;2023-04-15T05:31:30;6.07;;;3.53;;
69900;SDS011;57183;50.930;5.406;2023-04-15T05:33:55;8.73;;;3.72;;
69900;SDS011;57183;50.930;5.406;2023-04-15T05:36:21;7.82;;;4.22;;
69900;SDS011;57183;50.930;5.406;2023-04-15T05:38:47;5.03;;;3.47;;
69900;SDS011;57183;50.930;5.406;2023-04-15T05:41:12;6.30;;;3.30;;
69900;SDS011;57183;50.930;5.406;2023-04-15T05:43:39;8.30;;;3.55;;
69900;SDS011;57183;50.930;5.406;2023-04-15T05:46:05;6.22;;;3.30;;
69900;SDS011;57183;50.930;5.406;2023-04-15T05:48:32;8.20;;;3.50;;
69900;SDS011;57183;50.930;5.406;2023-04-15T05:50:58;8.75;;;3.17;;
69900;SDS011;57183;50.930;5.406;2023-04-15T05:53:24;10.40;;;4.75;;
69900;SDS011;57183;50.930;5.406;2023-04-15T05:55:50;11.25;;;5.13;;
69900;SDS011;57183;50.930;5.406;2023-04-15T05:58:16;8.50;;;3.90;;
69900;SDS011;57183;50.930;5.406;2023-04-15T06:00:42;8.20;;;4.13;;
69900;SDS011;57183;50.930;5.406;2023-04-15T06:03:08;10.90;;;4.28;;
69900;SDS011;57183;50.930;5.406;2023-04-15T06:05:35;8.43;;;4.60;;
69900;SDS011;57183;50.930;5.406;2023-04-15T06:08:01;5.97;;;3.55;;
69900;SDS011;57183;50.930;5.406;2023-04-15T06:10:26;12.70;;;5.15;;
69900;SDS011;57183;50.930;5.406;2023-04-15T06:12:52;6.25;;;3.83;;
69900;SDS011;57183;50.930;5.406;2023-04-15T06:15:18;8.50;;;4.93;;
69900;SDS011;57183;50.930;5.406;2023-04-15T06:17:44;10.02;;;6.50;;
69900;SDS011;57183;50.930;5.406;2023-04-15T06:20:09;8.93;;;3.70;;
69900;SDS011;57183;50.930;5.406;2023-04-15T06:22:36;6.50;;;4.82;;
69900;SDS011;57183;50.930;5.406;2023-04-15T06:25:03;6.53;;;5.10;;
69900;SDS011;57183;50.930;5.406;2023-04-15T06:27:29;7.75;;;4.90;;
69900;SDS011;57183;50.930;5.406;2023-04-15T06:29:55;10.23;;;5.25;;
69900;SDS011;57183;50.930;5.406;2023-04-15T06:32:20;9.90;;;5.88;;
69900;SDS011;57183;50.930;5.406;2023-04-15T06:34:46;10.20;;;4.78;;
69900;SDS011;57183;50.930;5.406;2023-04-15T06:37:12;7.63;;;4.75;;
69900;SDS011;57183;50.930;5.406;2023-04-15T06:39:40;9.98;;;5.63;;
69900;SDS011;57183;50.930;5.406;2023-04-15T06:42:07;7.25;;;5.13;;
69900;SDS011;57183;50.930;5.406;2023-04-15T06:44:33;9.45;;;4.80;;
69900;SDS011;57183;50.930;5.406;2023-04-15T06:46:59;8.77;;;5.53;;
69900;SDS011;57183;50.930;5.406;2023-04-15T06:49:25;5.93;;;4.28;;
69900;SDS011;57183;50.930;5.406;2023-04-15T06:51:50;11.50;;;5.20;;
69900;SDS011;57183;50.930;5.406;2023-04-15T06:54:16;10.15;;;4.32;;
69900;SDS011;57183;50.930;5.406;2023-04-15T06:56:42;7.95;;;5.53;;
69900;SDS011;57183;50.930;5.406;2023-04-15T06:59:08;6.35;;;4.85;;
69900;SDS011;57183;50.930;5.406;2023-04-15T07:01:34;10.15;;;6.10;;
69900;SDS011;57183;50.930;5.406;2023-04-15T07:03:59;9.23;;;6.22;;
69900;SDS011;57183;50.930;5.406;2023-04-15T07:06:25;11.13;;;5.60;;
69900;SDS011;57183;50.930;5.406;2023-04-15T07:08:51;11.77;;;5.13;;
69900;SDS011;57183;50.930;5.406;2023-04-15T07:11:18;9.18;;;5.80;;
69900;SDS011;57183;50.930;5.406;2023-04-15T07:13:44;9.38;;;5.45;;
69900;SDS011;57183;50.930;5.406;2023-04-15T07:16:10;6.88;;;5.18;;
69900;SDS011;57183;50.930;5.406;2023-04-15T07:18:36;9.57;;;5.68;;
69900;SDS011;57183;50.930;5.406;2023-04-15T07:21:02;12.70;;;5.88;;
69900;SDS011;57183;50.930;5.406;2023-04-15T07:23:27;8.27;;;5.57;;
69900;SDS011;57183;50.930;5.406;2023-04-15T07:25:53;9.95;;;5.15;;
69900;SDS011;57183;50.930;5.406;2023-04-15T07:28:19;9.38;;;5.32;;
69900;SDS011;57183;50.930;5.406;2023-04-15T07:30:45;8.75;;;5.20;;
69900;SDS011;57183;50.930;5.406;2023-04-15T07:33:10;9.48;;;5.35;;
69900;SDS011;57183;50.930;5.406;2023-04-15T07:35:36;10.25;;;5.22;;
69900;SDS011;57183;50.930;5.406;2023-04-15T07:38:02;10.80;;;5.05;;
69900;SDS011;57183;50.930;5.406;2023-04-15T07:40:28;10.73;;;4.82;;
69900;SDS011;57183;50.930;5.406;2023-04-15T07:42:54;8.25;;;4.93;;
69900;SDS011;57183;50.930;5.406;2023-04-15T07:45:21;7.40;;;5.03;;
69900;SDS011;57183;50.930;5.406;2023-04-15T07:47:46;7.18;;;5.80;;
69900;SDS011;57183;50.930;5.406;2023-04-15T07:50:12;10.30;;;5.82;;
69900;SDS011;57183;50.930;5.406;2023-04-15T07:52:38;12.85;;;6.40;;
69900;SDS011;57183;50.930;5.406;2023-04-15T07:55:07;10.77;;;6.40;;
69900;SDS011;57183;50.930;5.406;2023-04-15T07:57:36;9.98;;;6.72;;
69900;SDS011;57183;50.930;5.406;2023-04-15T08:00:03;8.57;;;5.25;;
69900;SDS011;57183;50.930;5.406;2023-04-15T08:02:31;9.25;;;5.85;;
69900;SDS011;57183;50.930;5.406;2023-04-15T08:04:57;7.07;;;6.32;;
69900;SDS011;57183;50.930;5.406;2023-04-15T08:07:23;9.35;;;5.82;;
69900;SDS011;57183;50.930;5.406;2023-04-15T08:09:50;8.52;;;5.90;;
69900;SDS011;57183;50.930;5.406;2023-04-15T08:12:16;9.93;;;7.50;;
69900;SDS011;57183;50.930;5.406;2023-04-15T08:14:41;9.25;;;7.88;;
69900;SDS011;57183;50.930;5.406;2023-04-15T08:17:07;9.65;;;7.38;;
69900;SDS011;57183;50.930;5.406;2023-04-15T08:19:33;10.18;;;7.82;;
69900;SDS011;57183;50.930;5.406;2023-04-15T08:21:59;12.65;;;8.13;;
69900;SDS011;57183;50.930;5.406;2023-04-15T08:24:24;10.13;;;8.52;;
69900;SDS011;57183;50.930;5.406;2023-04-15T08:26:50;13.88;;;9.05;;
69900;SDS011;57183;50.930;5.406;2023-04-15T08:29:16;14.82;;;9.32;;
69900;SDS011;57183;50.930;5.406;2023-04-15T08:31:42;12.75;;;8.73;;
69900;SDS011;57183;50.930;5.406;2023-04-15T08:34:10;11.82;;;9.35;;
69900;SDS011;57183;50.930;5.406;2023-04-15T08:36:36;11.00;;;8.15;;
69900;SDS011;57183;50.930;5.406;2023-04-15T08:39:01;11.75;;;8.25;;
69900;SDS011;57183;50.930;5.406;2023-04-15T08:41:29;10.57;;;7.95;;
69900;SDS011;57183;50.930;5.406;2023-04-15T08:44:04;9.07;;;7.78;;
69900;SDS011;57183;50.930;5.406;2023-04-15T08:46:31;12.48;;;7.75;;
69900;SDS011;57183;50.930;5.406;2023-04-15T08:49:02;9.52;;;7.60;;
69900;SDS011;57183;50.930;5.406;2023-04-15T08:51:29;7.38;;;6.57;;
69900;SDS011;57183;50.930;5.406;2023-04-15T08:53:55;7.38;;;6.68;;
69900;SDS011;57183;50.930;5.406;2023-04-15T08:56:23;8.00;;;6.75;;
69900;SDS011;57183;50.930;5.406;2023-04-15T08:58:50;10.40;;;7.05;;
69900;SDS011;57183;50.930;5.406;2023-04-15T09:01:17;10.40;;;7.95;;
69900;SDS011;57183;50.930;5.406;2023-04-15T09:03:43;10.23;;;6.43;;
69900;SDS011;57183;50.930;5.406;2023-04-15T09:06:09;7.97;;;7.18;;
69900;SDS011;57183;50.930;5.406;2023-04-15T09:08:36;9.43;;;5.78;;
69900;SDS011;57183;50.930;5.406;2023-04-15T09:11:02;7.18;;;6.28;;
69900;SDS011;57183;50.930;5.406;2023-04-15T09:13:28;6.97;;;6.30;;
69900;SDS011;57183;50.930;5.406;2023-04-15T09:15:54;7.50;;;5.88;;
69900;SDS011;57183;50.930;5.406;2023-04-15T09:18:27;7.55;;;6.32;;
69900;SDS011;57183;50.930;5.406;2023-04-15T09:20:54;8.05;;;5.55;;
69900;SDS011;57183;50.930;5.406;2023-04-15T09:23:20;6.60;;;4.85;;
69900;SDS011;57183;50.930;5.406;2023-04-15T09:25:46;7.97;;;4.97;;
69900;SDS011;57183;50.930;5.406;2023-04-15T09:28:13;6.93;;;5.47;;
69900;SDS011;57183;50.930;5.406;2023-04-15T09:30:41;14.18;;;5.18;;
69900;SDS011;57183;50.930;5.406;2023-04-15T09:33:10;12.30;;;5.28;;
69900;SDS011;57183;50.930;5.406;2023-04-15T09:35:39;8.73;;;4.80;;
69900;SDS011;57183;50.930;5.406;2023-04-15T09:38:05;8.88;;;5.05;;
69900;SDS011;57183;50.930;5.406;2023-04-15T09:43:03;11.70;;;5.78;;
69900;SDS011;57183;50.930;5.406;2023-04-15T09:45:30;6.60;;;5.60;;
69900;SDS011;57183;50.930;5.406;2023-04-15T09:47:57;6.35;;;5.25;;
69900;SDS011;57183;50.930;5.406;2023-04-15T09:50:27;5.03;;;4.10;;
69900;SDS011;57183;50.930;5.406;2023-04-15T09:52:53;7.13;;;4.22;;
69900;SDS011;57183;50.930;5.406;2023-04-15T09:55:19;6.60;;;3.72;;
69900;SDS011;57183;50.930;5.406;2023-04-15T09:57:46;8.50;;;4.22;;
69900;SDS011;57183;50.930;5.406;2023-04-15T10:00:12;7.90;;;4.05;;
69900;SDS011;57183;50.930;5.406;2023-04-15T10:02:39;6.68;;;4.28;;
69900;SDS011;57183;50.930;5.406;2023-04-15T10:05:06;6.28;;;3.28;;
69900;SDS011;57183;50.930;5.406;2023-04-15T10:07:37;4.40;;;3.30;;
69900;SDS011;57183;50.930;5.406;2023-04-15T10:10:05;6.18;;;3.40;;
69900;SDS011;57183;50.930;5.406;2023-04-15T10:12:31;4.93;;;2.60;;
69900;SDS011;57183;50.930;5.406;2023-04-15T10:14:58;2.80;;;2.40;;
69900;SDS011;57183;50.930;5.406;2023-04-15T10:17:29;3.47;;;2.40;;
69900;SDS011;57183;50.930;5.406;2023-04-15T10:19:59;3.90;;;2.22;;
69900;SDS011;57183;50.930;5.406;2023-04-15T10:22:27;3.33;;;1.77;;
69900;SDS011;57183;50.930;5.406;2023-04-15T10:24:54;2.47;;;1.92;;
69900;SDS011;57183;50.930;5.406;2023-04-15T10:27:20;4.72;;;2.45;;
69900;SDS011;57183;50.930;5.406;2023-04-15T10:29:47;2.70;;;2.13;;
69900;SDS011;57183;50.930;5.406;2023-04-15T10:32:14;2.53;;;1.75;;
69900;SDS011;57183;50.930;5.406;2023-04-15T10:34:43;2.30;;;1.90;;
69900;SDS011;57183;50.930;5.406;2023-04-15T10:37:10;3.80;;;2.38;;
69900;SDS011;57183;50.930;5.406;2023-04-15T10:42:09;4.43;;;2.22;;
69900;SDS011;57183;50.930;5.406;2023-04-15T10:44:40;3.60;;;3.00;;
69900;SDS011;57183;50.930;5.406;2023-04-15T10:47:12;3.63;;;2.67;;
69900;SDS011;57183;50.930;5.406;2023-04-15T10:49:47;4.85;;;3.20;;
69900;SDS011;57183;50.930;5.406;2023-04-15T10:52:22;4.90;;;3.45;;
69900;SDS011;57183;50.930;5.406;2023-04-15T10:57:38;5.50;;;3.63;;
69900;SDS011;57183;50.930;5.406;2023-04-15T11:00:12;4.20;;;3.17;;
69900;SDS011;57183;50.930;5.406;2023-04-15T11:05:15;4.82;;;2.88;;
69900;SDS011;57183;50.930;5.406;2023-04-15T11:12:45;3.43;;;2.07;;
69900;SDS011;57183;50.930;5.406;2023-04-15T11:15:28;3.17;;;2.28;;
69900;SDS011;57183;50.930;5.406;2023-04-15T11:17:59;2.83;;;2.28;;
69900;SDS011;57183;50.930;5.406;2023-04-15T11:20:37;3.15;;;2.40;;
69900;SDS011;57183;50.930;5.406;2023-04-15T11:23:04;4.75;;;3.10;;
69900;SDS011;57183;50.930;5.406;2023-04-15T11:25:31;3.30;;;2.42;;
69900;SDS011;57183;50.930;5.406;2023-04-15T11:27:58;4.72;;;3.22;;
69900;SDS011;57183;50.930;5.406;2023-04-15T11:30:25;4.47;;;3.28;;
69900;SDS011;57183;50.930;5.406;2023-04-15T11:33:02;3.97;;;2.95;;
69900;SDS011;57183;50.930;5.406;2023-04-15T11:35:29;3.40;;;3.10;;
69900;SDS011;57183;50.930;5.406;2023-04-15T11:37:55;2.67;;;2.15;;
69900;SDS011;57183;50.930;5.406;2023-04-15T11:40:22;2.72;;;2.22;;
69900;SDS011;57183;50.930;5.406;2023-04-15T11:45:56;6.28;;;2.05;;
69900;SDS011;57183;50.930;5.406;2023-04-15T11:48:31;3.88;;;1.55;;
69900;SDS011;57183;50.930;5.406;2023-04-15T11:51:03;2.35;;;1.15;;
69900;SDS011;57183;50.930;5.406;2023-04-15T11:56:07;3.28;;;1.13;;
69900;SDS011;57183;50.930;5.406;2023-04-15T11:58:34;1.73;;;1.35;;
69900;SDS011;57183;50.930;5.406;2023-04-15T12:01:02;1.50;;;1.10;;
69900;SDS011;57183;50.930;5.406;2023-04-15T12:06:01;1.25;;;0.90;;
69900;SDS011;57183;50.930;5.406;2023-04-15T12:14:25;2.60;;;1.20;;
69900;SDS011;57183;50.930;5.406;2023-04-15T12:17:03;2.20;;;1.25;;
69900;SDS011;57183;50.930;5.406;2023-04-15T12:19:33;1.63;;;1.23;;
69900;SDS011;57183;50.930;5.406;2023-04-15T12:22:02;2.05;;;1.15;;
69900;SDS011;57183;50.930;5.406;2023-04-15T12:24:31;2.53;;;1.05;;
69900;SDS011;57183;50.930;5.406;2023-04-15T12:27:00;1.83;;;1.20;;
69900;SDS011;57183;50.930;5.406;2023-04-15T12:29:28;3.05;;;1.35;;
69900;SDS011;57183;50.930;5.406;2023-04-15T12:31:55;1.98;;;1.20;;
69900;SDS011;57183;50.930;5.406;2023-04-15T12:34:30;1.75;;;1.60;;
69900;SDS011;57183;50.930;5.406;2023-04-15T12:36:58;3.72;;;2.00;;
69900;SDS011;57183;50.930;5.406;2023-04-15T12:39:24;2.50;;;2.05;;
69900;SDS011;57183;50.930;5.406;2023-04-15T12:41:52;3.22;;;1.55;;
69900;SDS011;57183;50.930;5.406;2023-04-15T12:44:22;2.67;;;1.67;;
69900;SDS011;57183;50.930;5.406;2023-04-15T12:46:48;1.77;;;1.50;;
69900;SDS011;57183;50.930;5.406;2023-04-15T12:49:14;2.55;;;1.83;;
69900;SDS011;57183;50.930;5.406;2023-04-15T12:51:43;3.20;;;1.98;;
69900;SDS011;57183;50.930;5.406;2023-04-15T12:54:09;1.92;;;1.40;;
69900;SDS011;57183;50.930;5.406;2023-04-15T12:56:35;1.42;;;1.27;;
69900;SDS011;57183;50.930;5.406;2023-04-15T12:59:01;2.80;;;1.45;;
69900;SDS011;57183;50.930;5.406;2023-04-15T13:01:26;1.20;;;1.10;;
69900;SDS011;57183;50.930;5.406;2023-04-15T13:03:52;1.35;;;1.02;;
69900;SDS011;57183;50.930;5.406;2023-04-15T13:06:18;2.35;;;0.88;;
69900;SDS011;57183;50.930;5.406;2023-04-15T13:08:43;1.40;;;1.13;;
69900;SDS011;57183;50.930;5.406;2023-04-15T13:11:09;1.23;;;1.10;;
69900;SDS011;57183;50.930;5.406;2023-04-15T13:13:35;2.05;;;1.20;;
69900;SDS011;57183;50.930;5.406;2023-04-15T13:16:01;1.63;;;1.00;;
69900;SDS011;57183;50.930;5.406;2023-04-15T13:18:27;4.90;;;1.50;;
69900;SDS011;57183;50.930;5.406;2023-04-15T13:20:53;3.55;;;1.00;;
69900;SDS011;57183;50.930;5.406;2023-04-15T13:23:19;4.70;;;1.25;;
69900;SDS011;57183;50.930;5.406;2023-04-15T13:25:45;0.70;;;0.70;;
69900;SDS011;57183;50.930;5.406;2023-04-15T13:28:11;2.95;;;1.13;;
69900;SDS011;57183;50.930;5.406;2023-04-15T13:30:37;1.50;;;1.10;;
69900;SDS011;57183;50.930;5.406;2023-04-15T13:33:03;2.15;;;1.58;;
69900;SDS011;57183;50.930;5.406;2023-04-15T13:35:30;2.22;;;1.30;;
69900;SDS011;57183;50.930;5.406;2023-04-15T13:37:56;2.17;;;0.80;;
69900;SDS011;57183;50.930;5.406;2023-04-15T13:40:22;3.60;;;1.30;;
69900;SDS011;57183;50.930;5.406;2023-04-15T13:42:48;1.45;;;1.20;;
69900;SDS011;57183;50.930;5.406;2023-04-15T13:45:13;1.25;;;1.13;;
69900;SDS011;57183;50.930;5.406;2023-04-15T13:47:40;3.75;;;1.10;;
69900;SDS011;57183;50.930;5.406;2023-04-15T13:50:06;9.02;;;1.65;;
69900;SDS011;57183;50.930;5.406;2023-04-15T13:52:32;2.10;;;1.20;;
69900;SDS011;57183;50.930;5.406;2023-04-15T13:54:57;1.52;;;1.40;;
69900;SDS011;57183;50.930;5.406;2023-04-15T13:57:24;3.17;;;1.15;;
69900;SDS011;57183;50.930;5.406;2023-04-15T13:59:49;3.15;;;1.40;;
69900;SDS011;57183;50.930;5.406;2023-04-15T14:02:15;1.98;;;1.55;;
69900;SDS011;57183;50.930;5.406;2023-04-15T14:04:41;2.15;;;1.70;;
69900;SDS011;57183;50.930;5.406;2023-04-15T14:07:06;1.42;;;1.10;;
69900;SDS011;57183;50.930;5.406;2023-04-15T14:09:32;1.80;;;1.23;;
69900;SDS011;57183;50.930;5.406;2023-04-15T14:11:58;2.92;;;1.05;;
69900;SDS011;57183;50.930;5.406;2023-04-15T14:14:25;3.05;;;1.23;;
69900;SDS011;57183;50.930;5.406;2023-04-15T14:16:51;1.90;;;1.20;;
69900;SDS011;57183;50.930;5.406;2023-04-15T14:19:16;1.48;;;1.00;;
69900;SDS011;57183;50.930;5.406;2023-04-15T14:21:42;2.20;;;0.82;;
69900;SDS011;57183;50.930;5.406;2023-04-15T14:24:08;2.35;;;1.27;;
69900;SDS011;57183;50.930;5.406;2023-04-15T14:26:33;2.25;;;1.15;;
69900;SDS011;57183;50.930;5.406;2023-04-15T14:28:59;4.50;;;1.30;;
69900;SDS011;57183;50.930;5.406;2023-04-15T14:31:25;4.30;;;0.90;;
69900;SDS011;57183;50.930;5.406;2023-04-15T14:33:50;0.85;;;0.80;;
69900;SDS011;57183;50.930;5.406;2023-04-15T14:36:16;0.88;;;0.77;;
69900;SDS011;57183;50.930;5.406;2023-04-15T14:38:42;1.80;;;0.80;;
69900;SDS011;57183;50.930;5.406;2023-04-15T14:41:08;2.05;;;1.00;;
69900;SDS011;57183;50.930;5.406;2023-04-15T14:43:36;1.60;;;0.90;;
69900;SDS011;57183;50.930;5.406;2023-04-15T14:46:02;1.38;;;1.00;;
69900;SDS011;57183;50.930;5.406;2023-04-15T14:48:29;1.70;;;1.20;;
69900;SDS011;57183;50.930;5.406;2023-04-15T14:50:55;2.45;;;1.00;;
69900;SDS011;57183;50.930;5.406;2023-04-15T14:53:21;0.85;;;0.75;;
69900;SDS011;57183;50.930;5.406;2023-04-15T14:55:47;1.17;;;1.00;;
69900;SDS011;57183;50.930;5.406;2023-04-15T14:58:13;2.50;;;1.02;;
69900;SDS011;57183;50.930;5.406;2023-04-15T15:00:38;0.77;;;0.60;;
69900;SDS011;57183;50.930;5.406;2023-04-15T15:03:09;1.52;;;1.00;;
69900;SDS011;57183;50.930;5.406;2023-04-15T15:05:42;1.83;;;1.40;;
69900;SDS011;57183;50.930;5.406;2023-04-15T15:08:09;1.45;;;0.77;;
69900;SDS011;57183;50.930;5.406;2023-04-15T15:10:35;2.58;;;1.00;;